sensor_id;sensor_type;location;lat;lon;timestamp;P1;durP1;ratioP1;P2;durP2;ratioP2
16870;SDS011;8552;48.120;-1.456;2023-11-21T00:00:09;6.55;;;3.70;;
16870;SDS011;8552;48.120;-1.456;2023-11-21T00:02:37;9.38;;;3.42;;
16870;SDS011;8552;48.120;-1.456;2023-11-21T00:05:05;6.63;;;3.55;;
16870;SDS011;8552;48.120;-1.456;2023-11-21T00:07:38;7.35;;;2.85;;
16870;SDS011;8552;48.120;-1.456;2023-11-21T00:10:04;12.13;;;3.50;;
16870;SDS011;8552;48.120;-1.456;2023-11-21T00:12:31;7.32;;;3.25;;
16870;SDS011;8552;48.120;-1.456;2023-11-21T00:14:58;7.78;;;2.97;;
16870;SDS011;8552;48.120;-1.456;2023-11-21T00:17:26;5.43;;;2.85;;
16870;SDS011;8552;48.120;-1.456;2023-11-21T00:19:52;5.35;;;2.58;;
16870;SDS011;8552;48.120;-1.456;2023-11-21T00:22:18;11.85;;;2.95;;
16870;SDS011;8552;48.120;-1.456;2023-11-21T00:24:44;7.72;;;2.53;;
16870;SDS011;8552;48.120;-1.456;2023-11-21T00:27:10;10.43;;;4.55;;
16870;SDS011;8552;48.120;-1.456;2023-11-21T00:29:36;4.38;;;2.08;;
16870;SDS011;8552;48.120;-1.456;2023-11-21T00:32:03;9.40;;;2.25;;
16870;SDS011;8552;48.120;-1.456;2023-11-21T00:34:30;6.18;;;2.10;;
16870;SDS011;8552;48.120;-1.456;2023-11-21T00:36:56;6.45;;;2.20;;
16870;SDS011;8552;48.120;-1.456;2023-11-21T00:39:22;7.25;;;1.88;;
16870;SDS011;8552;48.120;-1.456;2023-11-21T00:41:47;10.07;;;2.08;;
16870;SDS011;8552;48.120;-1.456;2023-11-21T00:44:13;5.97;;;1.90;;
16870;SDS011;8552;48.120;-1.456;2023-11-21T00:46:39;7.53;;;3.10;;
16870;SDS011;8552;48.120;-1.456;2023-11-21T00:49:04;6.93;;;2.70;;
16870;SDS011;8552;48.120;-1.456;2023-11-21T00:51:30;13.23;;;2.63;;
16870;SDS011;8552;48.120;-1.456;2023-11-21T00:53:56;9.35;;;2.28;;
16870;SDS011;8552;48.120;-1.456;2023-11-21T00:56:23;9.38;;;2.45;;
16870;SDS011;8552;48.120;-1.456;2023-11-21T00:58:49;5.63;;;2.20;;
16870;SDS011;8552;48.120;-1.456;2023-11-21T01:01:17;5.75;;;2.85;;
16870;SDS011;8552;48.120;-1.456;2023-11-21T01:03:48;8.82;;;2.90;;
16870;SDS011;8552;48.120;-1.456;2023-11-21T01:06:14;6.45;;;2.22;;
16870;SDS011;8552;48.120;-1.456;2023-11-21T01:08:40;9.32;;;2.47;;
16870;SDS011;8552;48.120;-1.456;2023-11-21T01:11:06;5.57;;;2.03;;
16870;SDS011;8552;48.120;-1.456;2023-11-21T01:13:33;8.50;;;2.17;;
16870;SDS011;8552;48.120;-1.456;2023-11-21T01:16:00;12.85;;;2.25;;
16870;SDS011;8552;48.120;-1.456;2023-11-21T01:18:26;6.70;;;1.88;;
16870;SDS011;8552;48.120;-1.456;2023-11-21T01:20:51;6.80;;;2.25;;
16870;SDS011;8552;48.120;-1.456;2023-11-21T01:23:18;4.22;;;2.20;;
16870;SDS011;8552;48.120;-1.456;2023-11-21T01:25:44;5.03;;;2.22;;
16870;SDS011;8552;48.120;-1.456;2023-11-21T01:28:10;6.85;;;2.00;;
16870;SDS011;8552;48.120;-1.456;2023-11-21T01:30:36;7.88;;;2.40;;
16870;SDS011;8552;48.120;-1.456;2023-11-21T01:33:02;6.43;;;1.52;;
16870;SDS011;8552;48.120;-1.456;2023-11-21T01:35:28;9.38;;;3.95;;
16870;SDS011;8552;48.120;-1.456;2023-11-21T01:37:54;9.35;;;1.85;;
16870;SDS011;8552;48.120;-1.456;2023-11-21T01:40:19;8.43;;;2.13;;
16870;SDS011;8552;48.120;-1.456;2023-11-21T01:42:46;11.63;;;1.98;;
16870;SDS011;8552;48.120;-1.456;2023-11-21T01:45:12;6.90;;;1.55;;
16870;SDS011;8552;48.120;-1.456;2023-11-21T01:47:39;7.78;;;2.40;;
16870;SDS011;8552;48.120;-1.456;2023-11-21T01:50:07;11.38;;;2.10;;
16870;SDS011;8552;48.120;-1.456;2023-11-21T01:52:37;8.98;;;2.30;;
16870;SDS011;8552;48.120;-1.456;2023-11-21T01:55:04;9.38;;;1.95;;
16870;SDS011;8552;48.120;-1.456;2023-11-21T01:57:33;13.25;;;1.98;;
16870;SDS011;8552;48.120;-1.456;2023-11-21T02:00:00;4.10;;;1.42;;
16870;SDS011;8552;48.120;-1.456;2023-11-21T02:02:40;9.50;;;1.90;;
16870;SDS011;8552;48.120;-1.456;2023-11-21T02:05:19;4.47;;;1.55;;
16870;SDS011;8552;48.120;-1.456;2023-11-21T02:07:46;13.73;;;2.58;;
16870;SDS011;8552;48.120;-1.456;2023-11-21T02:10:17;6.68;;;2.53;;
16870;SDS011;8552;48.120;-1.456;2023-11-21T02:12:47;8.68;;;2.22;;
16870;SDS011;8552;48.120;-1.456;2023-11-21T02:15:15;4.15;;;1.75;;
16870;SDS011;8552;48.120;-1.456;2023-11-21T02:17:46;7.38;;;1.73;;
16870;SDS011;8552;48.120;-1.456;2023-11-21T02:20:16;4.40;;;1.48;;
16870;SDS011;8552;48.120;-1.456;2023-11-21T02:22:43;6.20;;;1.33;;
16870;SDS011;8552;48.120;-1.456;2023-11-21T02:25:13;16.15;;;2.08;;
16870;SDS011;8552;48.120;-1.456;2023-11-21T02:27:39;4.90;;;1.17;;
16870;SDS011;8552;48.120;-1.456;2023-11-21T02:30:05;3.25;;;1.52;;
16870;SDS011;8552;48.120;-1.456;2023-11-21T02:32:33;8.35;;;1.88;;
16870;SDS011;8552;48.120;-1.456;2023-11-21T02:34:59;4.53;;;1.27;;
16870;SDS011;8552;48.120;-1.456;2023-11-21T02:37:26;3.38;;;1.55;;
16870;SDS011;8552;48.120;-1.456;2023-11-21T02:39:52;6.50;;;1.08;;
16870;SDS011;8552;48.120;-1.456;2023-11-21T02:42:18;5.00;;;1.42;;
16870;SDS011;8552;48.120;-1.456;2023-11-21T02:44:44;6.53;;;1.08;;
16870;SDS011;8552;48.120;-1.456;2023-11-21T02:47:09;7.00;;;1.33;;
16870;SDS011;8552;48.120;-1.456;2023-11-21T02:49:35;3.05;;;1.15;;
16870;SDS011;8552;48.120;-1.456;2023-11-21T02:52:01;5.03;;;1.25;;
16870;SDS011;8552;48.120;-1.456;2023-11-21T02:54:28;4.88;;;1.20;;
16870;SDS011;8552;48.120;-1.456;2023-11-21T02:56:54;6.80;;;0.90;;
16870;SDS011;8552;48.120;-1.456;2023-11-21T02:59:19;5.25;;;1.83;;
16870;SDS011;8552;48.120;-1.456;2023-11-21T03:01:45;3.55;;;1.38;;
16870;SDS011;8552;48.120;-1.456;2023-11-21T03:04:11;4.32;;;1.10;;
16870;SDS011;8552;48.120;-1.456;2023-11-21T03:06:42;5.97;;;1.27;;
16870;SDS011;8552;48.120;-1.456;2023-11-21T03:09:09;4.68;;;1.08;;
16870;SDS011;8552;48.120;-1.456;2023-11-21T03:11:36;3.08;;;0.95;;
16870;SDS011;8552;48.120;-1.456;2023-11-21T03:14:02;3.78;;;0.95;;
16870;SDS011;8552;48.120;-1.456;2023-11-21T03:16:28;7.03;;;1.60;;
16870;SDS011;8552;48.120;-1.456;2023-11-21T03:18:54;4.13;;;0.95;;
16870;SDS011;8552;48.120;-1.456;2023-11-21T03:21:20;5.13;;;0.98;;
16870;SDS011;8552;48.120;-1.456;2023-11-21T03:23:45;5.80;;;1.83;;
16870;SDS011;8552;48.120;-1.456;2023-11-21T03:26:11;5.72;;;1.40;;
16870;SDS011;8552;48.120;-1.456;2023-11-21T03:28:38;7.95;;;1.35;;
16870;SDS011;8552;48.120;-1.456;2023-11-21T03:31:04;4.65;;;1.50;;
16870;SDS011;8552;48.120;-1.456;2023-11-21T03:33:31;2.28;;;0.82;;
16870;SDS011;8552;48.120;-1.456;2023-11-21T03:35:57;4.75;;;1.35;;
16870;SDS011;8552;48.120;-1.456;2023-11-21T03:38:23;4.22;;;1.10;;
16870;SDS011;8552;48.120;-1.456;2023-11-21T03:40:48;5.43;;;1.00;;
16870;SDS011;8552;48.120;-1.456;2023-11-21T03:43:15;5.22;;;1.33;;
16870;SDS011;8552;48.120;-1.456;2023-11-21T03:45:41;6.70;;;1.45;;
16870;SDS011;8552;48.120;-1.456;2023-11-21T03:48:07;4.85;;;1.27;;
16870;SDS011;8552;48.120;-1.456;2023-11-21T03:50:33;6.05;;;1.55;;
16870;SDS011;8552;48.120;-1.456;2023-11-21T03:52:59;5.32;;;1.30;;
16870;SDS011;8552;48.120;-1.456;2023-11-21T03:55:25;4.55;;;1.40;;
16870;SDS011;8552;48.120;-1.456;2023-11-21T03:57:52;3.50;;;1.15;;
16870;SDS011;8552;48.120;-1.456;2023-11-21T04:00:18;5.00;;;1.42;;
16870;SDS011;8552;48.120;-1.456;2023-11-21T04:02:45;3.70;;;1.90;;
16870;SDS011;8552;48.120;-1.456;2023-11-21T04:05:11;5.03;;;1.67;;
16870;SDS011;8552;48.120;-1.456;2023-11-21T04:07:37;9.32;;;1.90;;
16870;SDS011;8552;48.120;-1.456;2023-11-21T04:10:03;4.80;;;1.98;;
16870;SDS011;8552;48.120;-1.456;2023-11-21T04:12:33;4.78;;;1.40;;
16870;SDS011;8552;48.120;-1.456;2023-11-21T04:14:59;6.00;;;1.08;;
16870;SDS011;8552;48.120;-1.456;2023-11-21T04:17:24;4.65;;;1.10;;
16870;SDS011;8552;48.120;-1.456;2023-11-21T04:19:50;5.78;;;0.95;;
16870;SDS011;8552;48.120;-1.456;2023-11-21T04:22:16;8.20;;;1.58;;
16870;SDS011;8552;48.120;-1.456;2023-11-21T04:24:41;4.43;;;1.08;;
16870;SDS011;8552;48.120;-1.456;2023-11-21T04:27:07;3.78;;;1.25;;
16870;SDS011;8552;48.120;-1.456;2023-11-21T04:29:33;3.85;;;1.23;;
16870;SDS011;8552;48.120;-1.456;2023-11-21T04:31:58;6.68;;;1.60;;
16870;SDS011;8552;48.120;-1.456;2023-11-21T04:34:24;6.80;;;1.48;;
16870;SDS011;8552;48.120;-1.456;2023-11-21T04:36:50;3.47;;;1.48;;
16870;SDS011;8552;48.120;-1.456;2023-11-21T04:39:15;7.13;;;1.88;;
16870;SDS011;8552;48.120;-1.456;2023-11-21T04:41:41;8.38;;;2.17;;
16870;SDS011;8552;48.120;-1.456;2023-11-21T04:44:07;5.00;;;1.92;;
16870;SDS011;8552;48.120;-1.456;2023-11-21T04:46:33;4.03;;;1.08;;
16870;SDS011;8552;48.120;-1.456;2023-11-21T04:48:59;6.45;;;1.67;;
16870;SDS011;8552;48.120;-1.456;2023-11-21T04:51:24;6.78;;;1.42;;
16870;SDS011;8552;48.120;-1.456;2023-11-21T04:53:50;4.38;;;1.63;;
16870;SDS011;8552;48.120;-1.456;2023-11-21T04:56:16;2.78;;;1.30;;
16870;SDS011;8552;48.120;-1.456;2023-11-21T04:58:41;4.40;;;1.55;;
16870;SDS011;8552;48.120;-1.456;2023-11-21T05:01:07;5.35;;;1.40;;
16870;SDS011;8552;48.120;-1.456;2023-11-21T05:03:33;3.90;;;1.33;;
16870;SDS011;8552;48.120;-1.456;2023-11-21T05:05:59;4.82;;;1.38;;
16870;SDS011;8552;48.120;-1.456;2023-11-21T05:08:25;3.75;;;1.48;;
16870;SDS011;8552;48.120;-1.456;2023-11-21T05:10:51;4.32;;;1.90;;
16870;SDS011;8552;48.120;-1.456;2023-11-21T05:13:18;4.82;;;1.80;;
16870;SDS011;8552;48.120;-1.456;2023-11-21T05:15:45;5.45;;;1.48;;
16870;SDS011;8552;48.120;-1.456;2023-11-21T05:18:10;6.80;;;1.65;;
16870;SDS011;8552;48.120;-1.456;2023-11-21T05:20:38;4.97;;;1.08;;
16870;SDS011;8552;48.120;-1.456;2023-11-21T05:23:04;1.75;;;0.90;;
16870;SDS011;8552;48.120;-1.456;2023-11-21T05:25:30;2.15;;;0.73;;
16870;SDS011;8552;48.120;-1.456;2023-11-21T05:27:55;6.18;;;1.30;;
16870;SDS011;8552;48.120;-1.456;2023-11-21T05:30:21;5.30;;;1.33;;
16870;SDS011;8552;48.120;-1.456;2023-11-21T05:32:47;3.50;;;0.80;;
16870;SDS011;8552;48.120;-1.456;2023-11-21T05:35:14;5.00;;;1.77;;
16870;SDS011;8552;48.120;-1.456;2023-11-21T05:37:44;7.15;;;1.10;;
16870;SDS011;8552;48.120;-1.456;2023-11-21T05:40:10;4.78;;;1.10;;
16870;SDS011;8552;48.120;-1.456;2023-11-21T05:42:38;3.70;;;1.35;;
16870;SDS011;8552;48.120;-1.456;2023-11-21T05:45:05;3.85;;;1.00;;
16870;SDS011;8552;48.120;-1.456;2023-11-21T05:47:39;5.50;;;1.95;;
16870;SDS011;8552;48.120;-1.456;2023-11-21T05:50:06;4.10;;;0.90;;
16870;SDS011;8552;48.120;-1.456;2023-11-21T05:52:48;6.22;;;1.70;;
16870;SDS011;8552;48.120;-1.456;2023-11-21T05:55:14;4.30;;;1.13;;
16870;SDS011;8552;48.120;-1.456;2023-11-21T05:57:41;4.38;;;1.20;;
16870;SDS011;8552;48.120;-1.456;2023-11-21T06:00:10;5.30;;;1.85;;
16870;SDS011;8552;48.120;-1.456;2023-11-21T06:02:45;5.43;;;1.45;;
16870;SDS011;8552;48.120;-1.456;2023-11-21T06:05:12;4.07;;;1.23;;
16870;SDS011;8552;48.120;-1.456;2023-11-21T06:07:37;3.78;;;1.40;;
16870;SDS011;8552;48.120;-1.456;2023-11-21T06:10:05;3.42;;;0.93;;
16870;SDS011;8552;48.120;-1.456;2023-11-21T06:12:35;3.65;;;1.13;;
16870;SDS011;8552;48.120;-1.456;2023-11-21T06:15:04;5.18;;;1.23;;
16870;SDS011;8552;48.120;-1.456;2023-11-21T06:17:32;5.63;;;1.00;;
16870;SDS011;8552;48.120;-1.456;2023-11-21T06:19:58;6.68;;;1.02;;
16870;SDS011;8552;48.120;-1.456;2023-11-21T06:22:25;2.35;;;1.52;;
16870;SDS011;8552;48.120;-1.456;2023-11-21T06:24:53;4.50;;;1.20;;
16870;SDS011;8552;48.120;-1.456;2023-11-21T06:27:18;7.43;;;1.35;;
16870;SDS011;8552;48.120;-1.456;2023-11-21T06:29:44;5.57;;;0.60;;
16870;SDS011;8552;48.120;-1.456;2023-11-21T06:32:10;3.40;;;0.73;;
16870;SDS011;8552;48.120;-1.456;2023-11-21T06:34:35;2.38;;;0.90;;
16870;SDS011;8552;48.120;-1.456;2023-11-21T06:37:01;1.85;;;1.05;;
16870;SDS011;8552;48.120;-1.456;2023-11-21T06:39:27;1.42;;;0.60;;
16870;SDS011;8552;48.120;-1.456;2023-11-21T06:41:52;3.50;;;1.15;;
16870;SDS011;8552;48.120;-1.456;2023-11-21T06:44:18;2.75;;;0.73;;
16870;SDS011;8552;48.120;-1.456;2023-11-21T06:46:45;4.18;;;0.80;;
16870;SDS011;8552;48.120;-1.456;2023-11-21T06:49:11;3.63;;;1.05;;
16870;SDS011;8552;48.120;-1.456;2023-11-21T06:51:37;5.80;;;1.20;;
16870;SDS011;8552;48.120;-1.456;2023-11-21T06:54:02;4.15;;;1.52;;
16870;SDS011;8552;48.120;-1.456;2023-11-21T06:56:28;2.38;;;1.17;;
16870;SDS011;8552;48.120;-1.456;2023-11-21T06:58:54;2.95;;;1.42;;
16870;SDS011;8552;48.120;-1.456;2023-11-21T07:01:20;3.67;;;1.00;;
16870;SDS011;8552;48.120;-1.456;2023-11-21T07:03:47;0.73;;;0.73;;
16870;SDS011;8552;48.120;-1.456;2023-11-21T07:06:13;3.08;;;1.00;;
16870;SDS011;8552;48.120;-1.456;2023-11-21T07:08:38;3.35;;;1.48;;
16870;SDS011;8552;48.120;-1.456;2023-11-21T07:11:04;2.20;;;1.10;;
16870;SDS011;8552;48.120;-1.456;2023-11-21T07:13:30;2.33;;;1.00;;
16870;SDS011;8552;48.120;-1.456;2023-11-21T07:15:56;2.03;;;1.00;;
16870;SDS011;8552;48.120;-1.456;2023-11-21T07:18:23;2.28;;;0.88;;
16870;SDS011;8552;48.120;-1.456;2023-11-21T07:20:49;3.83;;;1.00;;
16870;SDS011;8552;48.120;-1.456;2023-11-21T07:23:15;2.28;;;1.10;;
16870;SDS011;8552;48.120;-1.456;2023-11-21T07:25:41;4.35;;;1.00;;
16870;SDS011;8552;48.120;-1.456;2023-11-21T07:28:08;2.78;;;1.10;;
16870;SDS011;8552;48.120;-1.456;2023-11-21T07:30:34;5.93;;;0.85;;
16870;SDS011;8552;48.120;-1.456;2023-11-21T07:32:59;2.42;;;1.00;;
16870;SDS011;8552;48.120;-1.456;2023-11-21T07:35:25;1.85;;;0.80;;
16870;SDS011;8552;48.120;-1.456;2023-11-21T07:37:51;2.83;;;1.10;;
16870;SDS011;8552;48.120;-1.456;2023-11-21T07:40:17;4.80;;;1.60;;
16870;SDS011;8552;48.120;-1.456;2023-11-21T07:42:43;4.65;;;2.17;;
16870;SDS011;8552;48.120;-1.456;2023-11-21T07:45:08;2.28;;;1.00;;
16870;SDS011;8552;48.120;-1.456;2023-11-21T07:47:34;1.38;;;0.80;;
16870;SDS011;8552;48.120;-1.456;2023-11-21T07:52:28;3.00;;;1.15;;
16870;SDS011;8552;48.120;-1.456;2023-11-21T07:54:53;2.97;;;0.70;;
16870;SDS011;8552;48.120;-1.456;2023-11-21T07:57:19;2.58;;;1.25;;
16870;SDS011;8552;48.120;-1.456;2023-11-21T07:59:45;1.92;;;0.80;;
16870;SDS011;8552;48.120;-1.456;2023-11-21T08:02:10;2.33;;;0.95;;
16870;SDS011;8552;48.120;-1.456;2023-11-21T08:04:36;4.60;;;1.20;;
16870;SDS011;8552;48.120;-1.456;2023-11-21T08:07:02;3.10;;;1.42;;
16870;SDS011;8552;48.120;-1.456;2023-11-21T08:09:28;3.42;;;1.38;;
16870;SDS011;8552;48.120;-1.456;2023-11-21T08:11:54;4.55;;;2.17;;
16870;SDS011;8552;48.120;-1.456;2023-11-21T08:14:21;4.35;;;2.55;;
16870;SDS011;8552;48.120;-1.456;2023-11-21T08:16:50;3.03;;;2.15;;
16870;SDS011;8552;48.120;-1.456;2023-11-21T08:19:16;1.83;;;1.10;;
16870;SDS011;8552;48.120;-1.456;2023-11-21T08:21:43;3.50;;;1.90;;
16870;SDS011;8552;48.120;-1.456;2023-11-21T08:24:09;2.45;;;1.23;;
16870;SDS011;8552;48.120;-1.456;2023-11-21T08:26:36;4.68;;;1.48;;
16870;SDS011;8552;48.120;-1.456;2023-11-21T08:29:02;5.47;;;1.20;;
16870;SDS011;8552;48.120;-1.456;2023-11-21T08:31:28;3.38;;;1.10;;
16870;SDS011;8552;48.120;-1.456;2023-11-21T08:33:54;2.10;;;1.05;;
16870;SDS011;8552;48.120;-1.456;2023-11-21T08:36:23;4.03;;;1.88;;
16870;SDS011;8552;48.120;-1.456;2023-11-21T08:38:49;1.88;;;1.40;;
16870;SDS011;8552;48.120;-1.456;2023-11-21T08:41:17;5.60;;;1.38;;
16870;SDS011;8552;48.120;-1.456;2023-11-21T08:43:47;3.38;;;1.55;;
16870;SDS011;8552;48.120;-1.456;2023-11-21T08:46:16;3.38;;;1.00;;
16870;SDS011;8552;48.120;-1.456;2023-11-21T08:48:43;2.88;;;1.63;;
16870;SDS011;8552;48.120;-1.456;2023-11-21T08:51:09;3.85;;;1.70;;
16870;SDS011;8552;48.120;-1.456;2023-11-21T08:53:39;4.35;;;2.42;;
16870;SDS011;8552;48.120;-1.456;2023-11-21T08:56:05;6.50;;;2.50;;
16870;SDS011;8552;48.120;-1.456;2023-11-21T08:58:31;8.18;;;2.95;;
16870;SDS011;8552;48.120;-1.456;2023-11-21T09:00:57;5.93;;;1.88;;
16870;SDS011;8552;48.120;-1.456;2023-11-21T09:03:23;3.28;;;1.65;;
16870;SDS011;8552;48.120;-1.456;2023-11-21T09:05:49;3.78;;;1.60;;
16870;SDS011;8552;48.120;-1.456;2023-11-21T09:08:16;4.60;;;1.80;;
16870;SDS011;8552;48.120;-1.456;2023-11-21T09:10:42;2.10;;;1.58;;
16870;SDS011;8552;48.120;-1.456;2023-11-21T09:13:08;2.78;;;1.92;;
16870;SDS011;8552;48.120;-1.456;2023-11-21T09:15:35;5.93;;;1.80;;
16870;SDS011;8552;48.120;-1.456;2023-11-21T09:18:00;6.28;;;1.92;;
16870;SDS011;8552;48.120;-1.456;2023-11-21T09:20:27;7.55;;;2.90;;
16870;SDS011;8552;48.120;-1.456;2023-11-21T09:22:53;8.50;;;2.10;;
16870;SDS011;8552;48.120;-1.456;2023-11-21T09:25:20;6.32;;;1.80;;
16870;SDS011;8552;48.120;-1.456;2023-11-21T09:27:46;6.55;;;2.30;;
16870;SDS011;8552;48.120;-1.456;2023-11-21T09:30:12;6.03;;;2.17;;
16870;SDS011;8552;48.120;-1.456;2023-11-21T09:32:39;6.63;;;2.50;;
16870;SDS011;8552;48.120;-1.456;2023-11-21T09:35:05;7.05;;;2.28;;
16870;SDS011;8552;48.120;-1.456;2023-11-21T09:37:33;4.40;;;1.70;;
16870;SDS011;8552;48.120;-1.456;2023-11-21T09:39:59;3.13;;;1.90;;
16870;SDS011;8552;48.120;-1.456;2023-11-21T09:42:38;3.92;;;1.60;;
16870;SDS011;8552;48.120;-1.456;2023-11-21T09:45:27;3.67;;;1.77;;
16870;SDS011;8552;48.120;-1.456;2023-11-21T09:47:57;4.40;;;1.83;;
16870;SDS011;8552;48.120;-1.456;2023-11-21T09:50:23;5.57;;;1.77;;
16870;SDS011;8552;48.120;-1.456;2023-11-21T09:52:57;3.58;;;1.45;;
16870;SDS011;8552;48.120;-1.456;2023-11-21T09:55:31;4.15;;;1.95;;
16870;SDS011;8552;48.120;-1.456;2023-11-21T09:58:04;6.65;;;1.48;;
16870;SDS011;8552;48.120;-1.456;2023-11-21T10:00:32;5.95;;;1.80;;
16870;SDS011;8552;48.120;-1.456;2023-11-21T10:02:58;2.63;;;1.23;;
16870;SDS011;8552;48.120;-1.456;2023-11-21T10:05:25;4.07;;;1.80;;
16870;SDS011;8552;48.120;-1.456;2023-11-21T10:07:50;2.72;;;1.27;;
16870;SDS011;8552;48.120;-1.456;2023-11-21T10:10:20;3.13;;;1.40;;
16870;SDS011;8552;48.120;-1.456;2023-11-21T10:12:50;2.35;;;1.13;;
16870;SDS011;8552;48.120;-1.456;2023-11-21T10:15:18;8.15;;;2.33;;
16870;SDS011;8552;48.120;-1.456;2023-11-21T10:17:46;2.65;;;1.65;;
16870;SDS011;8552;48.120;-1.456;2023-11-21T10:20:18;4.40;;;1.83;;
16870;SDS011;8552;48.120;-1.456;2023-11-21T10:22:45;1.52;;;1.40;;
16870;SDS011;8552;48.120;-1.456;2023-11-21T10:25:11;4.60;;;2.30;;
16870;SDS011;8552;48.120;-1.456;2023-11-21T10:27:39;1.85;;;1.40;;
16870;SDS011;8552;48.120;-1.456;2023-11-21T10:30:09;2.70;;;1.83;;
16870;SDS011;8552;48.120;-1.456;2023-11-21T10:32:39;4.13;;;1.73;;
16870;SDS011;8552;48.120;-1.456;2023-11-21T10:35:06;5.03;;;2.50;;
16870;SDS011;8552;48.120;-1.456;2023-11-21T10:37:38;2.90;;;1.73;;
16870;SDS011;8552;48.120;-1.456;2023-11-21T10:40:08;3.83;;;1.80;;
16870;SDS011;8552;48.120;-1.456;2023-11-21T10:42:41;6.78;;;2.05;;
16870;SDS011;8552;48.120;-1.456;2023-11-21T10:45:09;2.65;;;1.98;;
16870;SDS011;8552;48.120;-1.456;2023-11-21T10:47:40;4.82;;;2.28;;
16870;SDS011;8552;48.120;-1.456;2023-11-21T10:50:07;3.08;;;2.28;;
16870;SDS011;8552;48.120;-1.456;2023-11-21T10:52:42;4.72;;;2.30;;
16870;SDS011;8552;48.120;-1.456;2023-11-21T10:55:18;3.70;;;2.22;;
16870;SDS011;8552;48.120;-1.456;2023-11-21T10:57:51;3.45;;;1.92;;
16870;SDS011;8552;48.120;-1.456;2023-11-21T11:00:19;3.08;;;2.15;;
16870;SDS011;8552;48.120;-1.456;2023-11-21T11:02:50;3.25;;;2.03;;
16870;SDS011;8552;48.120;-1.456;2023-11-21T11:05:19;4.40;;;2.00;;
16870;SDS011;8552;48.120;-1.456;2023-11-21T11:07:47;2.42;;;1.65;;
16870;SDS011;8552;48.120;-1.456;2023-11-21T11:10:17;3.70;;;1.70;;
16870;SDS011;8552;48.120;-1.456;2023-11-21T11:12:46;2.60;;;2.13;;
16870;SDS011;8552;48.120;-1.456;2023-11-21T11:15:12;1.77;;;1.65;;
16870;SDS011;8552;48.120;-1.456;2023-11-21T11:17:39;3.63;;;1.73;;
16870;SDS011;8552;48.120;-1.456;2023-11-21T11:20:07;2.78;;;1.88;;
16870;SDS011;8552;48.120;-1.456;2023-11-21T11:22:37;5.13;;;1.83;;
16870;SDS011;8552;48.120;-1.456;2023-11-21T11:28:20;2.92;;;1.90;;
16870;SDS011;8552;48.120;-1.456;2023-11-21T11:38:45;2.45;;;1.50;;
16870;SDS011;8552;48.120;-1.456;2023-11-21T11:41:11;1.92;;;1.30;;
16870;SDS011;8552;48.120;-1.456;2023-11-21T11:43:37;5.05;;;1.60;;
16870;SDS011;8552;48.120;-1.456;2023-11-21T11:46:10;2.97;;;2.05;;
16870;SDS011;8552;48.120;-1.456;2023-11-21T11:48:40;2.95;;;2.00;;
16870;SDS011;8552;48.120;-1.456;2023-11-21T11:51:06;3.55;;;1.90;;
16870;SDS011;8552;48.120;-1.456;2023-11-21T11:53:40;3.25;;;1.85;;
16870;SDS011;8552;48.120;-1.456;2023-11-21T11:56:25;5.45;;;2.00;;
16870;SDS011;8552;48.120;-1.456;2023-11-21T11:58:57;2.50;;;2.05;;
16870;SDS011;8552;48.120;-1.456;2023-11-21T12:01:25;3.58;;;2.03;;
16870;SDS011;8552;48.120;-1.456;2023-11-21T12:04:37;2.38;;;1.95;;
16870;SDS011;8552;48.120;-1.456;2023-11-21T12:06:42;3.85;;;1.80;;
16870;SDS011;8552;48.120;-1.456;2023-11-21T12:09:17;4.53;;;2.13;;
16870;SDS011;8552;48.120;-1.456;2023-11-21T12:11:46;5.05;;;2.00;;
16870;SDS011;8552;48.120;-1.456;2023-11-21T12:14:14;2.00;;;1.80;;
16870;SDS011;8552;48.120;-1.456;2023-11-21T12:16:40;2.28;;;1.50;;
16870;SDS011;8552;48.120;-1.456;2023-11-21T12:19:08;3.58;;;2.50;;
16870;SDS011;8552;48.120;-1.456;2023-11-21T12:21:37;4.35;;;2.58;;
16870;SDS011;8552;48.120;-1.456;2023-11-21T12:24:03;2.45;;;2.00;;
16870;SDS011;8552;48.120;-1.456;2023-11-21T12:26:29;3.15;;;2.25;;
16870;SDS011;8552;48.120;-1.456;2023-11-21T12:28:55;3.85;;;2.75;;
16870;SDS011;8552;48.120;-1.456;2023-11-21T12:31:21;6.28;;;2.67;;
16870;SDS011;8552;48.120;-1.456;2023-11-21T12:33:47;2.08;;;1.75;;
16870;SDS011;8552;48.120;-1.456;2023-11-21T12:36:14;4.07;;;2.08;;
16870;SDS011;8552;48.120;-1.456;2023-11-21T12:38:41;3.17;;;2.30;;
16870;SDS011;8552;48.120;-1.456;2023-11-21T12:41:07;2.03;;;1.70;;
16870;SDS011;8552;48.120;-1.456;2023-11-21T12:43:36;3.63;;;2.40;;
16870;SDS011;8552;48.120;-1.456;2023-11-21T12:46:05;2.38;;;1.75;;
16870;SDS011;8552;48.120;-1.456;2023-11-21T12:48:32;4.32;;;2.30;;
16870;SDS011;8552;48.120;-1.456;2023-11-21T12:50:57;4.40;;;1.92;;
16870;SDS011;8552;48.120;-1.456;2023-11-21T12:53:25;2.25;;;2.00;;
16870;SDS011;8552;48.120;-1.456;2023-11-21T12:55:51;2.00;;;1.83;;
16870;SDS011;8552;48.120;-1.456;2023-11-21T12:58:20;2.10;;;1.90;;
16870;SDS011;8552;48.120;-1.456;2023-11-21T13:00:48;2.97;;;1.60;;
16870;SDS011;8552;48.120;-1.456;2023-11-21T13:03:16;4.05;;;1.95;;
16870;SDS011;8552;48.120;-1.456;2023-11-21T13:05:45;4.20;;;2.15;;
16870;SDS011;8552;48.120;-1.456;2023-11-21T13:08:16;3.50;;;2.70;;
16870;SDS011;8552;48.120;-1.456;2023-11-21T13:10:45;3.75;;;2.30;;
16870;SDS011;8552;48.120;-1.456;2023-11-21T13:13:12;2.97;;;2.30;;
16870;SDS011;8552;48.120;-1.456;2023-11-21T13:15:51;2.35;;;1.90;;
16870;SDS011;8552;48.120;-1.456;2023-11-21T13:18:26;2.60;;;1.73;;
16870;SDS011;8552;48.120;-1.456;2023-11-21T13:20:57;5.35;;;3.50;;
16870;SDS011;8552;48.120;-1.456;2023-11-21T13:23:25;3.85;;;2.35;;
16870;SDS011;8552;48.120;-1.456;2023-11-21T13:25:52;5.00;;;2.30;;
16870;SDS011;8552;48.120;-1.456;2023-11-21T13:28:18;1.25;;;1.13;;
16870;SDS011;8552;48.120;-1.456;2023-11-21T13:30:46;2.67;;;1.77;;
16870;SDS011;8552;48.120;-1.456;2023-11-21T13:33:13;4.22;;;2.45;;
16870;SDS011;8552;48.120;-1.456;2023-11-21T13:35:42;6.72;;;2.83;;
16870;SDS011;8552;48.120;-1.456;2023-11-21T13:38:14;3.25;;;2.40;;
16870;SDS011;8552;48.120;-1.456;2023-11-21T13:40:49;4.07;;;2.05;;
16870;SDS011;8552;48.120;-1.456;2023-11-21T13:43:19;9.50;;;3.42;;
16870;SDS011;8552;48.120;-1.456;2023-11-21T13:45:47;6.53;;;2.75;;
16870;SDS011;8552;48.120;-1.456;2023-11-21T13:48:37;4.63;;;1.92;;
16870;SDS011;8552;48.120;-1.456;2023-11-21T13:51:07;4.45;;;3.05;;
16870;SDS011;8552;48.120;-1.456;2023-11-21T13:53:38;8.23;;;4.90;;
16870;SDS011;8552;48.120;-1.456;2023-11-21T13:56:06;3.55;;;2.45;;
16870;SDS011;8552;48.120;-1.456;2023-11-21T13:58:32;2.05;;;1.85;;
16870;SDS011;8552;48.120;-1.456;2023-11-21T14:01:15;2.88;;;2.13;;
16870;SDS011;8552;48.120;-1.456;2023-11-21T14:04:13;2.13;;;1.83;;
16870;SDS011;8552;48.120;-1.456;2023-11-21T14:06:38;2.70;;;2.10;;
16870;SDS011;8552;48.120;-1.456;2023-11-21T14:09:16;4.18;;;2.63;;
16870;SDS011;8552;48.120;-1.456;2023-11-21T14:11:58;2.55;;;2.28;;
16870;SDS011;8552;48.120;-1.456;2023-11-21T14:14:27;4.15;;;2.20;;
16870;SDS011;8552;48.120;-1.456;2023-11-21T14:16:53;2.60;;;2.30;;
16870;SDS011;8552;48.120;-1.456;2023-11-21T14:19:21;4.15;;;2.30;;
16870;SDS011;8552;48.120;-1.456;2023-11-21T14:21:47;3.67;;;2.00;;
16870;SDS011;8552;48.120;-1.456;2023-11-21T14:24:15;4.07;;;2.30;;
16870;SDS011;8552;48.120;-1.456;2023-11-21T14:26:47;4.15;;;2.65;;
16870;SDS011;8552;48.120;-1.456;2023-11-21T14:29:14;5.60;;;2.47;;
16870;SDS011;8552;48.120;-1.456;2023-11-21T14:31:44;3.90;;;2.63;;
16870;SDS011;8552;48.120;-1.456;2023-11-21T14:34:11;3.58;;;2.08;;
16870;SDS011;8552;48.120;-1.456;2023-11-21T14:36:38;3.40;;;2.25;;
16870;SDS011;8552;48.120;-1.456;2023-11-21T14:39:05;2.30;;;2.10;;
16870;SDS011;8552;48.120;-1.456;2023-11-21T14:41:41;4.35;;;2.10;;
16870;SDS011;8552;48.120;-1.456;2023-11-21T14:44:09;2.75;;;1.90;;
16870;SDS011;8552;48.120;-1.456;2023-11-21T14:46:37;3.10;;;2.03;;
16870;SDS011;8552;48.120;-1.456;2023-11-21T14:49:05;3.22;;;1.70;;
16870;SDS011;8552;48.120;-1.456;2023-11-21T14:51:47;4.30;;;2.25;;
16870;SDS011;8552;48.120;-1.456;2023-11-21T14:54:28;3.90;;;2.67;;
16870;SDS011;8552;48.120;-1.456;2023-11-21T14:57:20;3.22;;;2.05;;
16870;SDS011;8552;48.120;-1.456;2023-11-21T14:59:48;2.45;;;1.77;;
16870;SDS011;8552;48.120;-1.456;2023-11-21T15:02:17;3.45;;;1.70;;
16870;SDS011;8552;48.120;-1.456;2023-11-21T15:04:47;4.35;;;1.95;;